Destinations Budapest Liszt Ferenc International Airport

Budapest Liszt Ferenc International Airport (LHBP / BUD)

Flights to Budapest Liszt Ferenc International Airport

Flight number From ETE Dispatch
SPY-2450 EGPH Edinburgh Airport 03:00

Flights from Budapest Liszt Ferenc International Airport

Flight number To ETE Dispatch
SPY-2451 EGPH Edinburgh Airport 03:00
About

Budapest Liszt Ferenc International Airport facts

Budapest Liszt Ferenc International Airport is located in Budapest at an elevation of 150.9 meters or 495 feet.

Currently, Speedy Airlines serves 2 flights to and from Budapest Liszt Ferenc International Airport.

Detailed airport info

Route map

Weather

Current weather

METAR

METAR

Metar data retrieved Sunday, 21 July 2024 at 19:55 UTC

LHBP 211930Z VRB02KT CAVOK 23/19 Q1009 NOSIG
Wind Temperature
2 kt 23c